createdAt,value
2019-01-22T00:01:21.566Z,53.28
2019-01-22T00:03:52.295Z,49.40
2019-01-22T00:06:22.318Z,42.83
2019-01-22T00:08:55.239Z,46.30
2019-01-22T00:11:26.098Z,40.25
2019-01-22T00:13:57.048Z,51.42
2019-01-22T00:16:28.416Z,45.00
2019-01-22T00:18:59.158Z,49.90
2019-01-22T00:21:32.081Z,72.65
2019-01-22T00:24:02.838Z,85.00
2019-01-22T00:26:33.654Z,86.08
2019-01-22T00:29:04.802Z,48.23
2019-01-22T00:31:38.758Z,59.35
2019-01-22T00:34:09.594Z,70.52
2019-01-22T00:36:40.451Z,90.50
2019-01-22T00:39:09.686Z,93.95
2019-01-22T00:41:40.757Z,77.22
2019-01-22T00:44:12.279Z,60.25
2019-01-22T00:46:45.126Z,58.15
2019-01-22T00:49:15.998Z,61.83
2019-01-22T00:51:45.758Z,52.60
2019-01-22T00:54:17.238Z,49.75
2019-01-22T00:56:48.034Z,44.40
2019-01-22T00:59:18.847Z,70.65
2019-01-22T01:01:49.639Z,39.73
2019-01-22T01:04:19.719Z,38.38
2019-01-22T01:06:49.478Z,53.73
2019-01-22T01:09:20.317Z,57.80
2019-01-22T01:11:51.160Z,46.77
2019-01-22T01:14:22.566Z,41.40
2019-01-22T01:16:54.206Z,55.58
2019-01-22T01:19:26.440Z,83.90
2019-01-22T01:21:58.042Z,95.17
2019-01-22T01:24:28.759Z,85.53
2019-01-22T01:26:59.518Z,68.02
2019-01-22T01:29:29.526Z,94.55
2019-01-22T01:31:59.285Z,87.95
2019-01-22T01:34:29.047Z,105.83
2019-01-22T01:36:59.840Z,89.50
2019-01-22T01:39:31.358Z,78.50
2019-01-22T01:42:02.490Z,94.97
2019-01-22T01:44:32.302Z,99.05
2019-01-22T01:47:03.166Z,74.37
2019-01-22T01:49:33.926Z,88.90
2019-01-22T01:52:04.758Z,86.17
2019-01-22T01:54:35.961Z,119.02
2019-01-22T01:57:06.848Z,117.82
2019-01-22T01:59:37.705Z,123.13
2019-01-22T02:02:06.918Z,114.95
2019-01-22T02:04:37.888Z,128.20
2019-01-22T02:07:09.078Z,137.32
2019-01-22T02:09:40.478Z,129.97
2019-01-22T02:12:11.286Z,132.80
2019-01-22T02:14:44.199Z,145.53
2019-01-22T02:17:19.965Z,143.45
2019-01-22T02:19:59.815Z,148.02
2019-01-22T02:22:45.569Z,127.92
2019-01-22T02:25:36.678Z,110.65
2019-01-22T02:28:22.678Z,119.97
2019-01-22T02:31:02.366Z,135.28
2019-01-22T02:33:57.362Z,98.58
2019-01-22T02:36:42.397Z,116.37
2019-01-22T02:39:28.302Z,100.80
2019-01-22T02:42:04.279Z,117.90
2019-01-22T02:45:00.352Z,107.67
2019-01-22T02:47:43.318Z,124.42
2019-01-22T02:50:34.850Z,101.47
2019-01-22T02:53:13.565Z,71.22
2019-01-22T02:56:07.646Z,71.02
2019-01-22T02:59:02.047Z,79.17
2019-01-22T03:02:07.447Z,81.90
2019-01-22T03:04:53.090Z,64.27
2019-01-22T03:07:30.095Z,74.87
2019-01-22T03:10:30.839Z,88.22
2019-01-22T03:13:05.082Z,77.78
2019-01-22T03:16:07.318Z,88.65
2019-01-22T03:18:44.246Z,65.90
2019-01-22T03:21:19.679Z,39.85
2019-01-22T03:24:05.518Z,30.90
2019-01-22T03:26:50.246Z,51.10
2019-01-22T03:29:41.726Z,79.50
2019-01-22T03:32:29.155Z,65.92
2019-01-22T03:35:14.998Z,54.83
2019-01-22T03:37:52.886Z,45.35
2019-01-22T03:40:32.170Z,68.15
2019-01-22T03:43:20.846Z,70.32
2019-01-22T03:45:54.846Z,77.65
2019-01-22T03:48:28.767Z,76.77
2019-01-22T03:51:07.168Z,35.65
2019-01-22T03:53:41.399Z,16.82
2019-01-22T03:56:20.526Z,63.68
2019-01-22T03:58:50.318Z,30.72
2019-01-22T04:01:21.409Z,42.05
2019-01-22T04:03:53.718Z,31.68
2019-01-22T04:06:24.360Z,39.03
2019-01-22T04:08:56.797Z,48.20
2019-01-22T04:11:28.055Z,38.55
2019-01-22T04:13:57.907Z,69.62
2019-01-22T04:16:28.758Z,47.73
2019-01-22T04:18:59.522Z,64.72
2019-01-22T04:21:32.238Z,59.20
2019-01-22T04:24:13.179Z,53.52
2019-01-22T04:27:04.047Z,56.88
2019-01-22T04:30:01.399Z,70.75
2019-01-22T04:32:35.321Z,68.07
2019-01-22T04:35:14.202Z,38.40
2019-01-22T04:37:53.054Z,69.75
2019-01-22T04:40:43.764Z,45.43
2019-01-22T04:43:37.733Z,49.20
2019-01-22T04:46:13.570Z,56.68
2019-01-22T04:49:07.014Z,60.63
2019-01-22T04:51:46.680Z,28.30
2019-01-22T04:54:23.478Z,53.42
2019-01-22T04:56:57.527Z,43.25
2019-01-22T04:59:37.173Z,86.78
2019-01-22T05:02:20.080Z,92.82
2019-01-22T05:04:59.897Z,83.35
2019-01-22T05:07:58.274Z,16.48
2019-01-22T05:10:37.319Z,27.52
2019-01-22T05:13:19.968Z,58.95
2019-01-22T05:16:20.930Z,77.97
2019-01-22T05:19:07.131Z,31.15
2019-01-22T05:21:53.014Z,41.92
2019-01-22T05:24:29.878Z,53.85
2019-01-22T05:27:15.797Z,24.80
2019-01-22T05:29:54.735Z,63.48
2019-01-22T05:32:43.078Z,58.00
2019-01-22T05:35:25.562Z,83.95
2019-01-22T05:38:08.478Z,25.00
2019-01-22T05:40:56.198Z,21.60
2019-01-22T05:43:52.478Z,21.42
2019-01-22T05:46:56.854Z,79.35
2019-01-22T05:49:38.919Z,41.77
2019-01-22T05:52:21.865Z,48.45
2019-01-22T05:54:59.681Z,47.80
2019-01-22T05:57:32.318Z,51.90
2019-01-22T06:00:16.925Z,87.05
2019-01-22T06:02:50.899Z,67.75
2019-01-22T06:05:59.901Z,49.27
2019-01-22T06:08:33.966Z,118.08
2019-01-22T06:11:36.446Z,88.82
2019-01-22T06:14:30.998Z,73.47
2019-01-22T06:17:21.289Z,48.55
2019-01-22T06:20:20.118Z,56.02
2019-01-22T06:23:09.323Z,63.95
2019-01-22T06:25:51.759Z,97.47
2019-01-22T06:28:28.758Z,91.10
2019-01-22T06:31:23.518Z,79.97
2019-01-22T06:34:01.478Z,62.05
2019-01-22T06:36:47.081Z,62.05
2019-01-22T06:39:30.836Z,65.22
2019-01-22T06:42:21.559Z,62.33
2019-01-22T06:45:07.299Z,44.35
2019-01-22T06:48:09.646Z,20.68
2019-01-22T06:50:50.998Z,25.85
2019-01-22T06:53:36.527Z,10.48
2019-01-22T06:56:18.855Z,30.88
2019-01-22T06:58:58.674Z,25.43
2019-01-22T07:01:49.689Z,69.92
2019-01-22T07:04:32.615Z,55.98
2019-01-22T07:07:05.555Z,51.55
2019-01-22T07:09:48.078Z,35.50
2019-01-22T07:12:33.874Z,59.38
2019-01-22T07:15:22.960Z,46.28
2019-01-22T07:17:58.023Z,82.00
2019-01-22T07:20:42.033Z,52.10
2019-01-22T07:23:33.714Z,33.35
2019-01-22T07:26:13.282Z,55.50
2019-01-22T07:28:57.889Z,52.10
2019-01-22T07:31:40.199Z,62.90
2019-01-22T07:34:25.958Z,95.70
2019-01-22T07:37:08.442Z,46.37
2019-01-22T07:39:51.325Z,93.27
2019-01-22T07:42:53.398Z,51.85
2019-01-22T07:45:39.158Z,64.70
2019-01-22T07:48:14.883Z,85.62
2019-01-22T07:50:59.793Z,90.57
2019-01-22T07:53:44.674Z,63.58
2019-01-22T07:56:26.954Z,49.58
2019-01-22T07:59:20.679Z,59.75
2019-01-22T08:02:21.879Z,42.00
2019-01-22T08:04:56.395Z,62.88
2019-01-22T08:07:49.402Z,58.00
2019-01-22T08:10:24.594Z,63.58
2019-01-22T08:13:21.327Z,46.50
2019-01-22T08:16:11.438Z,90.53
2019-01-22T08:19:00.264Z,85.85
2019-01-22T08:21:50.214Z,82.82
2019-01-22T08:24:24.201Z,76.50
2019-01-22T08:27:14.452Z,61.13
2019-01-22T08:29:51.315Z,40.90
2019-01-22T08:32:48.203Z,81.17
2019-01-22T08:35:39.003Z,77.45
2019-01-22T08:38:16.878Z,44.65
2019-01-22T08:40:53.711Z,49.45
2019-01-22T08:43:27.796Z,53.35
2019-01-22T08:46:15.757Z,77.60
2019-01-22T08:48:49.635Z,67.95
2019-01-22T08:51:39.963Z,63.60
2019-01-22T08:54:22.435Z,45.38
2019-01-22T08:57:01.718Z,60.75
2019-01-22T08:59:41.194Z,59.33
2019-01-22T09:02:30.566Z,42.43
2019-01-22T09:05:13.517Z,51.60
2019-01-22T09:07:50.178Z,19.07
2019-01-22T09:10:29.202Z,66.47
2019-01-22T09:13:19.482Z,76.42
2019-01-22T09:16:07.883Z,55.85
2019-01-22T09:18:42.722Z,46.77
2019-01-22T09:21:19.397Z,83.60
2019-01-22T09:24:01.836Z,47.75
2019-01-22T09:26:44.315Z,37.85
2019-01-22T09:29:30.185Z,38.28
2019-01-22T09:32:20.401Z,31.07
2019-01-22T09:35:18.526Z,33.63
2019-01-22T09:37:50.954Z,33.67
2019-01-22T09:40:24.392Z,39.00
2019-01-22T09:42:54.203Z,36.00
2019-01-22T09:45:25.479Z,37.33
2019-01-22T09:47:56.305Z,31.23
2019-01-22T10:03:05.412Z,41.45
2019-01-22T10:05:35.756Z,40.20
2019-01-22T10:08:06.865Z,67.62
2019-01-22T10:10:37.358Z,44.15
2019-01-22T10:13:08.465Z,36.95
2019-01-22T10:15:39.504Z,41.60
2019-01-22T10:18:10.545Z,48.28
2019-01-22T10:20:41.594Z,60.25
2019-01-22T10:23:11.665Z,44.10
2019-01-22T10:25:42.779Z,44.40
2019-01-22T10:28:13.758Z,50.45
2019-01-22T10:30:43.291Z,39.92
2019-01-22T10:33:13.313Z,61.20
2019-01-22T10:35:44.473Z,51.55
2019-01-22T10:38:15.675Z,54.60
2019-01-22T10:40:47.314Z,38.13
2019-01-22T10:43:17.304Z,50.38
2019-01-22T10:45:48.425Z,33.20
2019-01-22T10:48:19.426Z,71.30
2019-01-22T10:50:50.426Z,72.97
2019-01-22T10:53:21.504Z,54.77
2019-01-22T10:55:52.547Z,63.02
2019-01-22T10:58:23.681Z,55.80
2019-01-22T11:00:54.786Z,48.05
2019-01-22T11:03:25.866Z,48.73
2019-01-22T11:05:56.945Z,33.80
2019-01-22T11:08:28.065Z,64.72
2019-01-22T11:10:59.073Z,33.50
2019-01-22T11:13:30.225Z,27.58
2019-01-22T11:16:01.907Z,37.20
2019-01-22T11:18:33.032Z,41.95
2019-01-22T11:21:04.113Z,44.20
2019-01-22T11:23:35.230Z,49.80
2019-01-22T11:26:07.833Z,72.62
2019-01-22T11:28:37.869Z,56.18
2019-01-22T11:31:09.072Z,57.30
2019-01-22T11:33:40.268Z,31.30
2019-01-22T11:36:11.465Z,26.68
2019-01-22T11:38:42.514Z,44.73
2019-01-22T11:41:13.713Z,43.98
2019-01-22T11:43:44.762Z,24.50
2019-01-22T11:46:15.947Z,36.45
2019-01-22T11:48:45.906Z,47.30
2019-01-22T11:51:16.953Z,44.27
2019-01-22T11:53:47.024Z,43.28
2019-01-22T11:56:18.869Z,37.78
2019-01-22T11:58:50.033Z,27.85
2019-01-22T12:01:21.104Z,32.40
2019-01-22T12:03:52.144Z,34.00
2019-01-22T12:06:23.346Z,39.53
2019-01-22T12:08:54.513Z,33.48
2019-01-22T12:11:24.510Z,25.32
2019-01-22T12:13:55.668Z,24.85
2019-01-22T12:16:29.266Z,41.63
2019-01-22T12:19:00.291Z,54.48
2019-01-22T12:21:31.306Z,33.55
2019-01-22T12:24:02.531Z,34.38
2019-01-22T12:26:33.583Z,40.65
2019-01-22T12:29:04.663Z,28.90
2019-01-22T12:31:35.828Z,53.33
2019-01-22T12:34:06.867Z,41.53
2019-01-22T12:36:36.738Z,49.73
2019-01-22T12:39:09.740Z,25.62
2019-01-22T12:41:40.671Z,44.63
2019-01-22T12:44:11.647Z,31.82
2019-01-22T12:46:42.702Z,49.00
2019-01-22T12:49:12.590Z,30.30
2019-01-22T12:51:48.630Z,38.90
2019-01-22T12:54:17.392Z,41.53
2019-01-22T12:56:49.267Z,55.03
2019-01-22T12:59:19.307Z,40.83
2019-01-22T13:01:50.350Z,61.15
2019-01-22T13:04:21.459Z,53.10
2019-01-22T13:06:52.419Z,37.23
2019-01-22T13:09:24.698Z,40.30
2019-01-22T13:11:55.827Z,47.05
2019-01-22T13:14:27.261Z,51.70
2019-01-22T13:16:58.258Z,47.48
2019-01-22T13:19:30.939Z,45.45
2019-01-22T13:22:04.229Z,41.68
2019-01-22T13:24:35.467Z,30.43
2019-01-22T13:27:06.545Z,27.37
2019-01-22T13:29:37.509Z,40.20
2019-01-22T13:32:09.038Z,45.48
2019-01-22T13:34:40.030Z,39.05
2019-01-22T13:37:12.460Z,49.38
2019-01-22T13:39:43.499Z,48.60
2019-01-22T13:42:15.020Z,45.92
2019-01-22T13:44:44.898Z,46.02
2019-01-22T13:47:15.987Z,34.27
2019-01-22T13:49:47.070Z,30.17
2019-01-22T13:52:16.934Z,66.00
2019-01-22T13:54:47.989Z,36.48
2019-01-22T13:57:19.033Z,34.10
2019-01-22T14:03:18.698Z,45.92
2019-01-22T14:05:49.741Z,33.55
2019-01-22T14:08:20.802Z,40.33
2019-01-22T14:10:50.827Z,57.55
2019-01-22T14:13:22.700Z,38.95
2019-01-22T14:15:53.708Z,34.92
2019-01-22T14:18:24.772Z,39.10
2019-01-22T14:20:55.715Z,27.82
2019-01-22T14:23:26.778Z,35.88
2019-01-22T14:25:56.618Z,40.00
2019-01-22T14:28:27.627Z,32.42
2019-01-22T14:30:58.634Z,52.67
2019-01-22T14:33:29.582Z,34.58
2019-01-22T14:35:59.699Z,44.58
2019-01-22T14:38:30.782Z,30.88
2019-01-22T14:41:01.940Z,60.88
2019-01-22T14:43:33.116Z,39.53
2019-01-22T14:46:04.188Z,39.48
2019-01-22T14:48:34.829Z,27.62
2019-01-22T14:51:05.900Z,48.73
2019-01-22T14:53:37.540Z,33.73
2019-01-22T14:56:08.663Z,36.55
2019-01-22T14:58:39.666Z,32.78
2019-01-22T15:01:10.673Z,27.40
2019-01-22T15:03:44.184Z,38.78
2019-01-22T15:06:14.066Z,48.38
2019-01-22T15:08:43.939Z,32.88
2019-01-22T15:11:13.276Z,44.27
2019-01-22T15:13:45.093Z,32.90
2019-01-22T15:16:16.067Z,41.30
2019-01-22T15:18:47.036Z,50.52
2019-01-22T15:21:18.183Z,19.20
2019-01-22T15:23:49.179Z,21.70
2019-01-22T15:26:20.298Z,54.15
2019-01-22T15:28:51.350Z,35.08
2019-01-22T15:31:22.428Z,29.45
2019-01-22T15:33:55.099Z,30.35
2019-01-22T15:36:24.947Z,44.88
2019-01-22T15:38:56.100Z,86.55
2019-01-22T15:41:26.780Z,46.88
2019-01-22T15:43:56.739Z,52.13
2019-01-22T15:46:27.859Z,40.00
2019-01-22T15:48:58.866Z,29.32
2019-01-22T15:51:30.661Z,38.35
2019-01-22T15:54:01.706Z,38.38
2019-01-22T15:56:32.944Z,49.83
2019-01-22T15:59:03.998Z,40.63
2019-01-22T16:01:35.344Z,37.88
2019-01-22T16:04:05.258Z,34.98
2019-01-22T16:06:36.307Z,71.80
2019-01-22T16:09:11.149Z,49.90
2019-01-22T16:11:41.739Z,40.10
2019-01-22T16:14:12.338Z,33.23
2019-01-22T16:16:45.590Z,92.88
2019-01-22T16:19:16.510Z,51.10
2019-01-22T16:21:46.464Z,38.00
2019-01-22T16:24:17.579Z,59.75
2019-01-22T16:26:53.376Z,38.88
2019-01-22T16:47:17.302Z,23.52
2019-01-22T16:49:48.956Z,31.80
2019-01-22T16:52:19.944Z,36.50
2019-01-22T16:54:50.462Z,23.27
2019-01-22T16:57:21.626Z,24.52
2019-01-22T16:59:52.713Z,43.40
2019-01-22T17:02:23.863Z,17.23
2019-01-22T17:04:55.542Z,42.38
2019-01-22T17:07:26.621Z,27.13
2019-01-22T17:09:57.706Z,29.95
2019-01-22T17:12:28.714Z,25.40
2019-01-22T17:14:58.712Z,31.48
2019-01-22T17:17:28.824Z,40.00
2019-01-22T17:19:58.742Z,36.55
2019-01-22T17:22:29.942Z,24.47
2019-01-22T17:25:00.008Z,21.02
2019-01-22T17:27:31.110Z,20.52
2019-01-22T17:30:02.274Z,22.95
2019-01-22T17:32:37.583Z,21.95
2019-01-22T17:35:11.583Z,23.77
2019-01-22T17:37:43.552Z,16.27
2019-01-22T17:40:16.631Z,22.13
2019-01-22T17:42:47.665Z,20.12
2019-01-22T17:45:20.350Z,42.90
2019-01-22T17:47:51.543Z,44.25
2019-01-22T17:50:23.143Z,16.90
2019-01-22T17:52:54.909Z,28.15
2019-01-22T17:55:24.909Z,20.82
2019-01-22T17:57:55.902Z,11.83
2019-01-22T18:00:34.703Z,14.20
2019-01-22T18:03:05.983Z,36.88
2019-01-22T18:05:36.066Z,16.00
2019-01-22T18:08:09.783Z,30.45
2019-01-22T18:10:39.392Z,19.37
2019-01-22T18:13:10.583Z,33.70
2019-01-22T18:15:41.783Z,18.82
2019-01-22T18:18:13.071Z,24.82
2019-01-22T18:20:44.231Z,23.80
2019-01-22T18:23:14.307Z,27.10
2019-01-22T18:25:46.200Z,46.88
2019-01-22T18:28:17.507Z,22.17
2019-01-22T18:30:48.942Z,22.95
2019-01-22T18:33:20.225Z,23.62
2019-01-22T18:35:51.662Z,28.47
2019-01-22T18:38:23.640Z,28.30
2019-01-22T18:40:56.112Z,41.77
2019-01-22T18:43:28.607Z,22.20
2019-01-22T18:45:59.866Z,38.63
2019-01-22T18:48:29.990Z,25.15
2019-01-22T18:51:01.144Z,27.75
2019-01-22T18:53:31.881Z,31.25
2019-01-22T18:56:05.191Z,26.48
2019-01-22T18:58:36.481Z,20.62
2019-01-22T19:01:07.853Z,22.02
2019-01-22T19:03:39.533Z,20.80
2019-01-22T19:06:10.863Z,26.07
2019-01-22T19:08:42.270Z,26.62
2019-01-22T19:11:11.943Z,26.37
2019-01-22T19:13:43.351Z,25.45
2019-01-22T19:16:15.350Z,25.75
2019-01-22T19:18:46.622Z,30.72
2019-01-22T19:21:17.982Z,42.15
2019-01-22T19:23:49.305Z,19.10
2019-01-22T19:26:20.670Z,13.05
2019-01-22T19:28:54.662Z,12.30
2019-01-22T19:31:26.663Z,15.45
2019-01-22T19:33:56.946Z,24.40
2019-01-22T19:36:27.944Z,17.35
2019-01-22T19:38:58.067Z,18.50
2019-01-22T19:41:29.462Z,33.20
2019-01-22T19:44:00.824Z,50.00
2019-01-22T19:46:30.504Z,17.42
2019-01-22T19:49:00.793Z,21.48
2019-01-22T19:51:32.192Z,20.60
2019-01-22T19:54:03.902Z,35.08
2019-01-22T19:56:37.193Z,34.55
2019-01-22T19:59:09.591Z,17.02
2019-01-22T20:01:40.948Z,19.92
2019-01-22T20:04:11.945Z,24.92
2019-01-22T20:06:43.103Z,23.42
2019-01-22T20:09:14.475Z,19.12
2019-01-22T20:11:45.622Z,25.77
2019-01-22T20:14:16.895Z,11.43
2019-01-22T20:16:54.587Z,17.87
2019-01-22T20:19:25.758Z,15.28
2019-01-22T20:22:04.542Z,40.00
2019-01-22T20:24:35.782Z,13.10
2019-01-22T20:27:08.511Z,17.92
2019-01-22T20:29:41.989Z,25.55
2019-01-22T20:32:12.182Z,21.37
2019-01-22T20:34:42.466Z,17.30
2019-01-22T20:37:12.681Z,33.92
2019-01-22T20:39:44.066Z,34.73
2019-01-22T20:42:17.782Z,12.60
2019-01-22T20:44:49.785Z,20.30
2019-01-22T20:47:21.121Z,26.85
2019-01-22T20:49:52.390Z,26.73
2019-01-22T20:52:22.584Z,18.23
2019-01-22T20:54:56.622Z,34.15
2019-01-22T20:57:30.951Z,18.37
2019-01-22T21:00:03.706Z,10.70
2019-01-22T21:02:37.091Z,16.40
2019-01-22T21:05:10.186Z,29.98
2019-01-22T21:07:41.544Z,27.32
2019-01-22T21:10:20.221Z,22.17
2019-01-22T21:12:51.422Z,21.73
2019-01-22T21:15:25.262Z,12.90
2019-01-22T21:17:56.622Z,21.90
2019-01-22T21:20:27.944Z,15.32
2019-01-22T21:22:59.345Z,10.93
2019-01-22T21:25:31.463Z,25.90
2019-01-22T21:28:02.824Z,31.70
2019-01-22T21:30:35.906Z,28.98
2019-01-22T21:33:08.271Z,16.15
2019-01-22T21:35:42.584Z,21.02
2019-01-22T21:38:16.224Z,17.60
2019-01-22T21:40:47.459Z,13.40
2019-01-22T21:43:19.378Z,28.60
2019-01-22T21:45:50.787Z,30.50
2019-01-22T21:48:24.226Z,24.05
2019-01-22T21:50:57.261Z,13.25
2019-01-22T21:53:28.143Z,8.73
2019-01-22T21:55:59.342Z,15.93
2019-01-22T21:58:31.230Z,55.63
2019-01-22T22:01:02.551Z,25.60
2019-01-22T22:03:34.527Z,16.67
2019-01-22T22:06:05.623Z,29.77
2019-01-22T22:08:36.942Z,26.60
2019-01-22T22:11:08.104Z,20.77
2019-01-22T22:13:39.830Z,13.15
2019-01-22T22:16:09.862Z,33.28
2019-01-22T22:18:39.263Z,40.63
2019-01-22T22:21:10.823Z,37.23
2019-01-22T22:23:41.868Z,30.20
2019-01-22T22:26:12.867Z,19.37
2019-01-22T22:28:42.785Z,17.57
2019-01-22T22:31:13.902Z,32.42
2019-01-22T22:33:44.462Z,21.20
2019-01-22T22:36:16.070Z,50.43
2019-01-22T22:38:47.169Z,29.37
2019-01-22T22:41:20.703Z,8.65
2019-01-22T22:43:52.227Z,25.02
2019-01-22T22:46:23.315Z,15.95
2019-01-22T22:48:54.471Z,37.70
2019-01-22T22:51:23.863Z,10.78
2019-01-22T22:53:55.118Z,29.30
2019-01-22T22:56:28.594Z,42.60
2019-01-22T22:58:59.705Z,12.25
2019-01-22T23:01:31.022Z,46.73
2019-01-22T23:04:01.992Z,29.57
2019-01-22T23:06:31.982Z,42.67
2019-01-22T23:09:03.822Z,52.83
2019-01-22T23:11:33.827Z,32.20
2019-01-22T23:14:03.662Z,35.65
2019-01-22T23:16:33.583Z,42.33
2019-01-22T23:19:08.342Z,32.30
2019-01-22T23:21:39.430Z,15.50
2019-01-22T23:24:10.582Z,29.72
2019-01-22T23:26:40.551Z,31.48
2019-01-22T23:29:15.953Z,22.32
2019-01-22T23:31:44.190Z,21.27
2019-01-22T23:34:15.342Z,34.50
2019-01-22T23:36:47.269Z,26.45
2019-01-22T23:39:18.266Z,42.10
2019-01-22T23:41:50.782Z,26.12
2019-01-22T23:44:21.873Z,38.10
2019-01-22T23:46:53.342Z,22.65
2019-01-22T23:49:24.433Z,42.78
2019-01-22T23:51:55.582Z,25.32
2019-01-22T23:54:26.622Z,52.83
2019-01-22T23:56:55.986Z,18.70
2019-01-22T23:59:27.791Z,38.25
